Time;durP1;ratioP1;P1;durP2;ratioP2;P2;SDS_P1;SDS_P2;PMS_P1;PMS_P2;Temp;Humidity;BMP_temperature;BMP_pressure;BME280_temperature;BME280_humidity;BME280_pressure;Samples;Min_cycle;Max_cycle;Signal;HPM_P1;HPM_P2
2022/01/21 00:00:59;;;;;;;;;5.00;4.00;;;;;;;;4992355;28;46453;-79
2022/01/21 00:03:24;;;;;;;;;3.00;3.00;;;;;;;;4992514;28;46125;-78
2022/01/21 00:05:52;;;;;;;;;2.00;1.00;;;;;;;;4993020;28;45471;-79
2022/01/21 00:08:18;;;;;;;;;6.00;2.75;;;;;;;;4992923;28;45790;-78
2022/01/21 00:10:43;;;;;;;;;3.00;2.33;;;;;;;;4992410;28;45776;-79
2022/01/21 00:13:18;;;;;;;;;3.00;3.00;;;;;;;;4992664;28;45411;-80
2022/01/21 00:15:43;;;;;;;;;5.75;5.75;;;;;;;;4992734;28;45491;-81
2022/01/21 00:18:10;;;;;;;;;3.00;3.00;;;;;;;;4992421;28;45557;-79
2022/01/21 00:31:38;;;;;;;;;3.50;3.50;;;;;;;;4993558;28;45864;-79
2022/01/21 00:34:03;;;;;;;;;7.33;5.00;;;;;;;;4991643;28;45534;-79
2022/01/21 00:36:29;;;;;;;;;2.75;2.00;;;;;;;;4991993;28;45627;-80
2022/01/21 00:38:55;;;;;;;;;5.67;5.00;;;;;;;;4992258;28;45889;-80
2022/01/21 00:41:25;;;;;;;;;5.25;5.00;;;;;;;;4991488;28;46486;-80
2022/01/21 00:43:50;;;;;;;;;5.00;5.00;;;;;;;;5001754;28;45857;-79
2022/01/21 00:46:16;;;;;;;;;5.33;5.33;;;;;;;;4992370;28;46028;-80
2022/01/21 00:48:41;;;;;;;;;9.00;5.67;;;;;;;;4992373;28;45621;-78
2022/01/21 00:51:06;;;;;;;;;9.67;7.67;;;;;;;;4991571;28;45409;-79
2022/01/21 00:53:32;;;;;;;;;6.00;5.75;;;;;;;;4992421;28;45663;-80
2022/01/21 00:55:57;;;;;;;;;8.25;7.00;;;;;;;;4991394;28;45304;-79
2022/01/21 00:58:22;;;;;;;;;5.33;5.33;;;;;;;;4991967;28;45425;-79
2022/01/21 01:00:48;;;;;;;;;6.00;5.50;;;;;;;;4992054;28;46741;-80
2022/01/21 01:03:14;;;;;;;;;5.00;3.67;;;;;;;;4991194;28;45682;-79
2022/01/21 01:05:39;;;;;;;;;6.50;4.00;;;;;;;;4991809;28;45803;-79
2022/01/21 01:08:05;;;;;;;;;3.00;3.00;;;;;;;;4992335;28;45475;-79
2022/01/21 01:10:44;;;;;;;;;6.00;6.00;;;;;;;;4990255;28;45719;-79
2022/01/21 01:21:22;;;;;;;;;3.00;3.00;;;;;;;;4991211;28;46352;-80
2022/01/21 01:29:11;;;;;;;;;5.50;5.00;;;;;;;;4991303;28;45479;-79
2022/01/21 01:31:36;;;;;;;;;3.67;3.67;;;;;;;;4973217;28;46450;-79
2022/01/21 01:34:03;;;;;;;;;7.33;5.00;;;;;;;;4991336;28;45804;-78
2022/01/21 01:36:28;;;;;;;;;6.00;6.00;;;;;;;;4990940;28;45424;-79
2022/01/21 01:41:34;;;;;;;;;3.50;2.75;;;;;;;;4991430;28;45970;-79
2022/01/21 01:49:34;;;;;;;;;5.75;4.50;;;;;;;;4991812;28;45411;-79
2022/01/21 01:52:00;;;;;;;;;5.25;5.25;;;;;;;;4990737;28;45597;-78
2022/01/21 01:54:26;;;;;;;;;5.75;4.00;;;;;;;;4990633;28;45758;-79
2022/01/21 01:56:54;;;;;;;;;5.50;3.50;;;;;;;;4990982;28;45538;-78
2022/01/21 01:59:19;;;;;;;;;7.75;6.50;;;;;;;;4991187;28;45463;-79
2022/01/21 02:02:12;;;;;;;;;6.67;6.00;;;;;;;;4990246;28;45978;-78
2022/01/21 02:04:37;;;;;;;;;4.00;4.00;;;;;;;;4988033;28;45735;-79
2022/01/21 02:07:03;;;;;;;;;7.75;7.75;;;;;;;;4991020;28;45471;-79
2022/01/21 02:09:29;;;;;;;;;7.00;6.00;;;;;;;;4990846;28;45536;-78
2022/01/21 02:11:55;;;;;;;;;6.25;6.25;;;;;;;;4990661;28;45567;-79
2022/01/21 02:14:24;;;;;;;;;6.25;5.50;;;;;;;;4990343;28;45512;-78
2022/01/21 02:22:08;;;;;;;;;5.50;3.50;;;;;;;;4990253;28;45887;-79
2022/01/21 02:24:46;;;;;;;;;5.25;5.25;;;;;;;;4991053;28;45462;-79
2022/01/21 02:27:12;;;;;;;;;7.25;6.00;;;;;;;;4988481;28;45611;-79
2022/01/21 02:29:45;;;;;;;;;6.00;4.50;;;;;;;;4990914;28;45405;-78
2022/01/21 02:32:11;;;;;;;;;4.50;4.50;;;;;;;;4989824;28;46429;-78
2022/01/21 02:34:37;;;;;;;;;3.67;3.67;;;;;;;;4989838;28;45555;-79
2022/01/21 02:37:02;;;;;;;;;9.50;5.00;;;;;;;;4990129;28;45744;-79
2022/01/21 02:39:27;;;;;;;;;7.00;5.00;;;;;;;;4990426;28;45491;-79
2022/01/21 02:41:53;;;;;;;;;4.33;3.00;;;;;;;;4989767;28;45395;-79
2022/01/21 02:44:18;;;;;;;;;5.50;5.50;;;;;;;;4990278;28;45480;-78
2022/01/21 02:46:45;;;;;;;;;5.50;5.50;;;;;;;;4990342;28;45680;-79
2022/01/21 02:49:10;;;;;;;;;5.50;5.50;;;;;;;;4990123;28;45459;-79
2022/01/21 02:51:36;;;;;;;;;6.25;4.50;;;;;;;;4989894;28;46070;-79
2022/01/21 02:54:04;;;;;;;;;5.25;5.25;;;;;;;;4989882;28;46212;-79
2022/01/21 02:56:30;;;;;;;;;7.00;6.00;;;;;;;;4990753;28;45587;-78
2022/01/21 02:58:56;;;;;;;;;5.00;4.00;;;;;;;;4971910;28;45632;-79
2022/01/21 03:01:22;;;;;;;;;6.75;6.00;;;;;;;;4989455;28;45898;-79
2022/01/21 03:03:47;;;;;;;;;3.00;3.00;;;;;;;;4990088;28;45463;-78
2022/01/21 03:06:16;;;;;;;;;6.75;6.00;;;;;;;;4989805;28;45294;-79
2022/01/21 03:08:42;;;;;;;;;5.00;5.00;;;;;;;;4972252;28;45647;-78
2022/01/21 03:11:08;;;;;;;;;5.00;5.00;;;;;;;;4989294;28;45654;-79
2022/01/21 03:13:33;;;;;;;;;10.00;10.00;;;;;;;;4990379;28;45443;-78
2022/01/21 03:15:58;;;;;;;;;10.00;9.00;;;;;;;;4989617;28;45436;-78
2022/01/21 03:18:23;;;;;;;;;9.50;6.25;;;;;;;;4990091;28;45441;-79
2022/01/21 03:20:49;;;;;;;;;9.00;7.00;;;;;;;;4989303;28;46148;-79
2022/01/21 03:23:17;;;;;;;;;8.50;7.00;;;;;;;;4989822;28;45625;-79
2022/01/21 03:25:44;;;;;;;;;6.00;4.00;;;;;;;;4990214;28;45736;-78
2022/01/21 03:28:10;;;;;;;;;7.00;6.00;;;;;;;;4989658;28;45396;-78
2022/01/21 03:30:35;;;;;;;;;6.00;5.50;;;;;;;;4989348;28;46328;-79
2022/01/21 03:33:00;;;;;;;;;6.00;6.00;;;;;;;;4971285;28;45457;-78
2022/01/21 03:35:26;;;;;;;;;6.33;6.00;;;;;;;;4989067;28;45474;-79
2022/01/21 03:37:51;;;;;;;;;6.33;5.00;;;;;;;;4989153;28;45614;-78
2022/01/21 03:40:16;;;;;;;;;6.00;5.50;;;;;;;;4989130;28;46950;-79
2022/01/21 03:42:41;;;;;;;;;4.33;3.00;;;;;;;;4990184;28;45407;-78
2022/01/21 03:45:07;;;;;;;;;8.33;7.00;;;;;;;;4989143;28;45563;-79
2022/01/21 03:47:32;;;;;;;;;5.00;3.50;;;;;;;;4989541;28;45527;-78
2022/01/21 03:50:18;;;;;;;;;7.00;5.33;;;;;;;;4989487;28;46219;-79
2022/01/21 03:52:43;;;;;;;;;4.75;3.00;;;;;;;;4989195;28;45774;-78
2022/01/21 03:55:08;;;;;;;;;5.00;5.00;;;;;;;;4989530;28;45976;-79
2022/01/21 03:57:33;;;;;;;;;6.33;6.00;;;;;;;;4989856;28;45546;-79
2022/01/21 03:59:58;;;;;;;;;7.00;6.75;;;;;;;;4970542;28;47494;-79
2022/01/21 04:02:24;;;;;;;;;6.00;5.00;;;;;;;;4989343;28;45510;-78
2022/01/21 04:04:49;;;;;;;;;10.00;9.00;;;;;;;;4971805;28;45656;-78
2022/01/21 04:07:14;;;;;;;;;9.00;6.00;;;;;;;;4988715;28;45681;-78
2022/01/21 04:09:39;;;;;;;;;8.33;8.33;;;;;;;;4989561;28;46357;-79
2022/01/21 04:12:05;;;;;;;;;7.00;6.00;;;;;;;;4989092;28;45453;-79
2022/01/21 04:14:32;;;;;;;;;5.00;5.00;;;;;;;;4989210;28;45553;-79
2022/01/21 04:16:57;;;;;;;;;8.50;6.25;;;;;;;;4989140;28;45571;-78
2022/01/21 04:19:22;;;;;;;;;9.33;8.33;;;;;;;;4989390;28;45615;-79
2022/01/21 04:21:48;;;;;;;;;7.67;6.67;;;;;;;;4987981;28;45368;-79
2022/01/21 04:24:14;;;;;;;;;7.00;6.67;;;;;;;;4988801;28;45356;-78
2022/01/21 04:26:40;;;;;;;;;9.00;7.00;;;;;;;;5005826;28;45387;-78
2022/01/21 04:29:05;;;;;;;;;5.67;5.00;;;;;;;;4989155;28;46091;-78
2022/01/21 04:31:30;;;;;;;;;6.00;6.00;;;;;;;;4988840;28;45723;-79
2022/01/21 04:33:55;;;;;;;;;6.00;5.00;;;;;;;;4988877;28;45380;-79
2022/01/21 04:36:21;;;;;;;;;6.00;6.00;;;;;;;;4970940;28;45782;-79
2022/01/21 04:38:46;;;;;;;;;6.00;6.00;;;;;;;;4988678;28;46107;-80
2022/01/21 04:41:35;;;;;;;;;5.00;3.67;;;;;;;;4988697;28;45794;-80
2022/01/21 04:49:28;;;;;;;;;7.00;5.00;;;;;;;;4992433;28;45625;-79
2022/01/21 04:52:02;;;;;;;;;5.67;4.33;;;;;;;;4990948;28;45550;-79
2022/01/21 04:54:32;;;;;;;;;6.25;5.25;;;;;;;;4992476;28;45462;-79
2022/01/21 04:56:57;;;;;;;;;6.25;5.75;;;;;;;;4991866;28;45551;-79
2022/01/21 04:59:23;;;;;;;;;12.25;9.50;;;;;;;;4992264;28;45756;-78
2022/01/21 05:01:48;;;;;;;;;6.33;5.33;;;;;;;;4991846;28;45863;-78
2022/01/21 05:04:13;;;;;;;;;3.00;2.33;;;;;;;;4991722;28;45602;-78
2022/01/21 05:06:40;;;;;;;;;6.67;6.33;;;;;;;;4991755;28;45696;-79
2022/01/21 05:09:05;;;;;;;;;5.50;5.25;;;;;;;;4991831;28;46518;-79
2022/01/21 05:11:35;;;;;;;;;6.00;5.50;;;;;;;;4992178;28;45739;-78
2022/01/21 05:14:12;;;;;;;;;5.50;5.50;;;;;;;;4991695;28;45626;-79
2022/01/21 05:16:40;;;;;;;;;8.50;6.00;;;;;;;;4999772;28;45314;-78
2022/01/21 05:19:14;;;;;;;;;9.00;7.00;;;;;;;;4997435;28;45530;-79
2022/01/21 05:21:40;;;;;;;;;8.75;6.00;;;;;;;;4999756;28;45709;-79
2022/01/21 05:24:06;;;;;;;;;6.00;5.33;;;;;;;;4993457;28;45480;-78
2022/01/21 05:26:36;;;;;;;;;6.75;6.50;;;;;;;;4996167;28;45523;-78
2022/01/21 05:29:02;;;;;;;;;9.00;6.25;;;;;;;;4998473;28;46161;-78
2022/01/21 05:31:28;;;;;;;;;6.00;5.75;;;;;;;;4994603;28;45440;-79
2022/01/21 05:33:53;;;;;;;;;6.00;5.00;;;;;;;;4998811;28;45498;-79
2022/01/21 05:36:18;;;;;;;;;5.67;5.00;;;;;;;;4996439;28;45405;-79
2022/01/21 05:38:43;;;;;;;;;5.67;5.67;;;;;;;;5003508;28;46484;-78
2022/01/21 05:41:08;;;;;;;;;6.00;5.00;;;;;;;;4997214;28;45407;-79
2022/01/21 05:43:34;;;;;;;;;3.00;3.00;;;;;;;;5000299;28;45369;-78
2022/01/21 05:48:43;;;;;;;;;5.00;5.00;;;;;;;;5010084;28;45384;-78
2022/01/21 05:51:08;;;;;;;;;9.00;7.00;;;;;;;;4990888;28;45083;-78
2022/01/21 05:53:34;;;;;;;;;9.00;7.00;;;;;;;;5004020;28;45120;-79
2022/01/21 05:56:02;;;;;;;;;6.67;6.00;;;;;;;;4996314;28;45571;-78
2022/01/21 05:58:27;;;;;;;;;7.00;6.00;;;;;;;;4976156;28;47103;-79
2022/01/21 06:00:52;;;;;;;;;6.25;5.50;;;;;;;;4996657;28;45452;-79
2022/01/21 06:03:18;;;;;;;;;5.33;5.33;;;;;;;;4985374;28;45155;-78
2022/01/21 06:05:43;;;;;;;;;9.33;7.00;;;;;;;;5002136;28;45507;-78
2022/01/21 06:08:08;;;;;;;;;5.75;5.00;;;;;;;;5006827;28;45176;-79
2022/01/21 06:10:33;;;;;;;;;7.00;6.00;;;;;;;;4991581;28;45008;-78
2022/01/21 06:12:59;;;;;;;;;5.67;5.67;;;;;;;;5006000;28;45875;-79
2022/01/21 06:15:24;;;;;;;;;9.00;7.00;;;;;;;;5007011;28;45258;-79
2022/01/21 06:17:49;;;;;;;;;6.75;6.00;;;;;;;;4999152;28;46634;-79
2022/01/21 06:20:15;;;;;;;;;9.00;9.00;;;;;;;;4985130;28;45401;-80
2022/01/21 06:22:40;;;;;;;;;6.00;6.00;;;;;;;;5007904;28;45331;-78
2022/01/21 06:25:05;;;;;;;;;5.00;3.00;;;;;;;;5008428;28;45307;-78
2022/01/21 06:27:32;;;;;;;;;6.67;6.33;;;;;;;;5012745;28;45629;-78
2022/01/21 06:29:58;;;;;;;;;5.50;5.00;;;;;;;;5018130;28;45058;-79
2022/01/21 06:32:25;;;;;;;;;6.33;6.33;;;;;;;;5006133;28;45236;-78
2022/01/21 06:34:50;;;;;;;;;7.00;6.00;;;;;;;;5015921;28;45708;-79
2022/01/21 06:37:15;;;;;;;;;6.00;6.00;;;;;;;;5028235;28;46211;-79
2022/01/21 06:39:40;;;;;;;;;5.00;5.00;;;;;;;;5015283;28;45076;-79
2022/01/21 06:42:06;;;;;;;;;6.00;5.00;;;;;;;;5008966;28;45030;-78
2022/01/21 06:44:31;;;;;;;;;5.25;5.00;;;;;;;;5009465;28;45481;-81
2022/01/21 06:46:56;;;;;;;;;6.67;6.33;;;;;;;;5008775;28;46139;-79
2022/01/21 06:49:21;;;;;;;;;6.67;5.00;;;;;;;;4990871;28;45249;-79
2022/01/21 06:51:47;;;;;;;;;11.00;7.00;;;;;;;;5008235;28;45065;-79
2022/01/21 06:54:13;;;;;;;;;7.67;6.00;;;;;;;;4990215;28;45358;-79
2022/01/21 06:56:38;;;;;;;;;6.00;6.00;;;;;;;;5005567;28;45645;-80
2022/01/21 06:59:03;;;;;;;;;4.33;4.33;;;;;;;;5008495;28;45195;-79
2022/01/21 07:01:29;;;;;;;;;6.00;5.67;;;;;;;;5009175;28;45283;-79
2022/01/21 07:03:54;;;;;;;;;7.25;7.00;;;;;;;;5008431;28;45329;-80
2022/01/21 07:06:19;;;;;;;;;7.00;6.00;;;;;;;;4999003;28;45505;-79
2022/01/21 07:08:44;;;;;;;;;7.00;6.00;;;;;;;;5000455;28;45517;-79
2022/01/21 07:11:10;;;;;;;;;7.67;6.67;;;;;;;;5008377;28;45240;-78
2022/01/21 07:13:35;;;;;;;;;5.00;5.00;;;;;;;;5008742;28;45056;-79
2022/01/21 07:16:00;;;;;;;;;5.00;2.33;;;;;;;;5007708;28;46036;-79
2022/01/21 07:18:27;;;;;;;;;6.33;5.33;;;;;;;;5008559;28;45273;-79
2022/01/21 07:20:52;;;;;;;;;6.50;6.00;;;;;;;;5007237;28;45323;-78
2022/01/21 07:23:17;;;;;;;;;5.00;5.00;;;;;;;;5008151;28;45697;-79
2022/01/21 07:25:42;;;;;;;;;7.00;5.33;;;;;;;;5011019;28;45752;-79
2022/01/21 07:28:09;;;;;;;;;5.00;3.67;;;;;;;;5007049;28;45239;-79
2022/01/21 07:30:34;;;;;;;;;6.25;5.25;;;;;;;;5009011;28;45010;-80
2022/01/21 07:32:59;;;;;;;;;6.00;5.00;;;;;;;;4990350;28;45015;-79
2022/01/21 07:35:24;;;;;;;;;6.00;5.67;;;;;;;;5007586;28;45389;-79
2022/01/21 07:37:50;;;;;;;;;10.67;9.33;;;;;;;;5008039;28;44998;-79
2022/01/21 07:40:15;;;;;;;;;6.33;5.33;;;;;;;;5007952;28;45256;-79
2022/01/21 07:42:41;;;;;;;;;8.25;6.25;;;;;;;;5007409;28;45029;-79
2022/01/21 07:45:07;;;;;;;;;9.00;6.00;;;;;;;;5008383;28;45804;-79
2022/01/21 07:47:32;;;;;;;;;5.75;5.50;;;;;;;;5008725;28;45142;-79
2022/01/21 07:49:57;;;;;;;;;6.67;5.67;;;;;;;;5006782;28;45143;-79
2022/01/21 07:52:22;;;;;;;;;8.33;7.00;;;;;;;;4988965;28;45572;-79
2022/01/21 07:54:48;;;;;;;;;8.33;5.67;;;;;;;;4989224;28;45425;-79
2022/01/21 07:57:13;;;;;;;;;5.00;5.00;;;;;;;;4988828;28;45304;-78
2022/01/21 07:59:38;;;;;;;;;6.25;4.00;;;;;;;;4991931;28;45415;-79
2022/01/21 08:02:04;;;;;;;;;4.50;3.00;;;;;;;;4989513;28;45510;-79
2022/01/21 08:04:29;;;;;;;;;6.75;6.50;;;;;;;;4988996;28;45418;-78
2022/01/21 08:06:55;;;;;;;;;2.33;1.33;;;;;;;;4998222;28;46407;-80
2022/01/21 08:09:24;;;;;;;;;7.00;5.00;;;;;;;;5006466;28;45363;-79
2022/01/21 08:11:49;;;;;;;;;6.50;6.00;;;;;;;;5007294;28;45142;-80
2022/01/21 08:14:15;;;;;;;;;11.00;10.00;;;;;;;;5005028;28;46233;-78
2022/01/21 08:16:40;;;;;;;;;10.33;10.33;;;;;;;;5007387;28;45230;-78
2022/01/21 08:19:05;;;;;;;;;10.00;10.00;;;;;;;;5008465;28;45436;-79
2022/01/21 08:21:30;;;;;;;;;16.00;10.33;;;;;;;;5011942;28;45187;-80
2022/01/21 08:23:56;;;;;;;;;10.67;7.00;;;;;;;;4993658;28;47187;-79
2022/01/21 08:26:25;;;;;;;;;11.50;9.50;;;;;;;;5031194;28;45118;-79
2022/01/21 08:28:51;;;;;;;;;11.00;9.50;;;;;;;;5021887;28;45289;-79
2022/01/21 08:31:17;;;;;;;;;15.50;10.25;;;;;;;;5005682;28;45834;-79
2022/01/21 08:33:42;;;;;;;;;11.00;10.00;;;;;;;;4991706;28;45361;-79
2022/01/21 08:36:08;;;;;;;;;11.00;9.67;;;;;;;;5009395;28;45579;-79
2022/01/21 08:38:33;;;;;;;;;9.50;7.00;;;;;;;;5008575;28;45317;-79
2022/01/21 08:40:58;;;;;;;;;10.50;10.50;;;;;;;;4992168;28;45400;-79
2022/01/21 08:43:25;;;;;;;;;11.33;10.67;;;;;;;;4997313;28;45547;-79
2022/01/21 08:45:50;;;;;;;;;10.50;10.00;;;;;;;;4997609;28;45276;-79
2022/01/21 08:48:15;;;;;;;;;11.00;11.00;;;;;;;;5011827;28;45473;-79
2022/01/21 08:50:40;;;;;;;;;10.00;8.00;;;;;;;;4999927;28;45436;-79
2022/01/21 08:53:35;;;;;;;;;12.00;11.00;;;;;;;;4991626;28;45690;-79
2022/01/21 08:55:54;;;;;;;;;12.00;11.75;;;;;;;;5001724;28;45103;-79
2022/01/21 08:58:19;;;;;;;;;14.75;13.25;;;;;;;;5006500;28;45398;-79
2022/01/21 09:00:45;;;;;;;;;10.00;10.00;;;;;;;;5007132;28;45211;-79
2022/01/21 09:03:13;;;;;;;;;12.00;11.25;;;;;;;;5006367;28;45602;-79
2022/01/21 09:05:38;;;;;;;;;13.50;11.00;;;;;;;;5011053;28;45453;-79
2022/01/21 09:08:03;;;;;;;;;13.50;12.75;;;;;;;;4992427;28;45315;-79
2022/01/21 09:10:29;;;;;;;;;15.75;14.75;;;;;;;;5010320;28;44974;-79
2022/01/21 09:12:54;;;;;;;;;12.00;12.00;;;;;;;;4991977;28;46375;-79
2022/01/21 09:15:24;;;;;;;;;15.00;13.75;;;;;;;;4992499;28;45320;-79
2022/01/21 09:17:50;;;;;;;;;14.50;14.25;;;;;;;;5018687;28;45559;-79
2022/01/21 09:20:15;;;;;;;;;17.00;14.67;;;;;;;;5016687;28;45113;-79
2022/01/21 09:22:40;;;;;;;;;12.00;11.33;;;;;;;;5009915;28;46052;-78
2022/01/21 09:25:06;;;;;;;;;12.00;11.00;;;;;;;;5009554;28;45029;-78
2022/01/21 09:27:31;;;;;;;;;11.50;11.00;;;;;;;;5010510;28;45082;-79
2022/01/21 09:29:56;;;;;;;;;16.67;16.33;;;;;;;;5009924;28;45202;-79
2022/01/21 09:32:21;;;;;;;;;11.00;10.00;;;;;;;;5010123;28;45477;-79
2022/01/21 09:34:46;;;;;;;;;12.00;11.67;;;;;;;;5009923;28;45192;-80
2022/01/21 09:37:12;;;;;;;;;18.33;16.33;;;;;;;;5009801;28;45330;-79
2022/01/21 09:39:38;;;;;;;;;13.75;13.25;;;;;;;;5010567;28;45404;-83
2022/01/21 09:42:03;;;;;;;;;14.75;13.50;;;;;;;;5009415;28;46089;-79
2022/01/21 09:44:29;;;;;;;;;20.25;17.75;;;;;;;;5009823;28;44986;-81
2022/01/21 09:46:57;;;;;;;;;13.75;13.00;;;;;;;;5009957;28;45335;-80
2022/01/21 09:49:26;;;;;;;;;17.00;15.50;;;;;;;;5009036;28;45272;-80
2022/01/21 09:51:57;;;;;;;;;20.50;18.75;;;;;;;;5008804;28;45194;-79
2022/01/21 09:54:26;;;;;;;;;12.00;11.50;;;;;;;;4991977;28;45119;-79
2022/01/21 09:56:52;;;;;;;;;15.75;14.50;;;;;;;;5009841;28;45256;-78
2022/01/21 09:59:18;;;;;;;;;15.00;13.75;;;;;;;;5010035;28;45184;-78
2022/01/21 10:01:44;;;;;;;;;15.50;14.50;;;;;;;;4991603;28;47789;-78
2022/01/21 10:04:13;;;;;;;;;16.00;16.00;;;;;;;;4991409;28;45731;-78
2022/01/21 10:06:39;;;;;;;;;16.25;15.25;;;;;;;;5010196;28;45217;-78
2022/01/21 10:09:04;;;;;;;;;17.75;16.00;;;;;;;;5009635;28;45198;-78
2022/01/21 10:11:29;;;;;;;;;17.67;15.00;;;;;;;;5009961;28;45173;-78
2022/01/21 10:13:55;;;;;;;;;19.67;18.33;;;;;;;;5009723;28;45318;-78
2022/01/21 10:16:20;;;;;;;;;18.50;15.25;;;;;;;;5010167;28;45261;-78
2022/01/21 10:19:06;;;;;;;;;14.75;12.75;;;;;;;;5009337;28;45134;-78
2022/01/21 10:21:35;;;;;;;;;12.75;12.75;;;;;;;;5008645;28;45783;-78
2022/01/21 10:24:07;;;;;;;;;19.75;14.50;;;;;;;;5009924;28;45338;-77
2022/01/21 10:26:33;;;;;;;;;21.25;21.25;;;;;;;;5009695;28;45197;-78
2022/01/21 10:28:58;;;;;;;;;20.25;17.25;;;;;;;;5008917;28;44884;-78
2022/01/21 10:31:24;;;;;;;;;21.00;18.00;;;;;;;;5009463;28;45557;-77
2022/01/21 10:33:51;;;;;;;;;18.50;17.25;;;;;;;;5008716;28;45318;-80
2022/01/21 10:36:24;;;;;;;;;20.50;19.75;;;;;;;;5008832;28;45029;-78
2022/01/21 10:38:51;;;;;;;;;19.25;18.50;;;;;;;;5000233;28;45321;-80
2022/01/21 10:41:18;;;;;;;;;16.00;15.75;;;;;;;;4990941;28;47378;-78
2022/01/21 10:43:43;;;;;;;;;20.50;17.25;;;;;;;;5007124;28;45094;-78
2022/01/21 10:46:13;;;;;;;;;17.75;17.75;;;;;;;;5009126;28;45133;-78
2022/01/21 10:48:57;;;;;;;;;22.50;19.00;;;;;;;;5008916;28;45072;-79
2022/01/21 10:51:25;;;;;;;;;15.75;14.75;;;;;;;;4996670;28;45639;-78
2022/01/21 10:53:51;;;;;;;;;18.25;17.25;;;;;;;;4989695;28;46045;-78
2022/01/21 10:56:17;;;;;;;;;18.75;17.00;;;;;;;;4972104;28;45423;-78
2022/01/21 10:58:51;;;;;;;;;17.75;17.00;;;;;;;;4991177;28;45723;-78
2022/01/21 11:01:17;;;;;;;;;17.75;17.50;;;;;;;;4990163;28;46772;-78
2022/01/21 11:03:55;;;;;;;;;18.00;14.50;;;;;;;;4990268;28;45655;-79
2022/01/21 11:06:23;;;;;;;;;16.00;15.50;;;;;;;;4990736;28;45522;-80
2022/01/21 11:08:49;;;;;;;;;17.25;16.00;;;;;;;;4989511;28;45541;-79
2022/01/21 11:11:21;;;;;;;;;18.50;16.75;;;;;;;;4989963;28;46375;-79
2022/01/21 11:13:46;;;;;;;;;27.25;22.25;;;;;;;;4990222;28;45433;-80
2022/01/21 11:16:15;;;;;;;;;20.00;18.25;;;;;;;;4989971;28;45488;-78
2022/01/21 11:18:48;;;;;;;;;21.25;19.25;;;;;;;;4990690;28;45425;-80
2022/01/21 11:21:13;;;;;;;;;21.75;18.25;;;;;;;;4989991;28;45935;-79
2022/01/21 11:23:38;;;;;;;;;22.25;21.75;;;;;;;;4988598;28;45600;-82
2022/01/21 11:26:09;;;;;;;;;17.67;16.67;;;;;;;;4990247;28;45301;-79
2022/01/21 11:28:39;;;;;;;;;23.00;22.50;;;;;;;;4990591;28;45474;-79
2022/01/21 11:31:05;;;;;;;;;18.00;16.75;;;;;;;;4989021;28;45447;-79
2022/01/21 11:33:30;;;;;;;;;24.00;22.50;;;;;;;;4990447;28;46004;-82
2022/01/21 11:35:56;;;;;;;;;24.50;20.00;;;;;;;;4989836;28;45450;-82
2022/01/21 11:38:23;;;;;;;;;22.67;21.67;;;;;;;;4989337;28;45461;-79
2022/01/21 11:40:49;;;;;;;;;31.00;25.25;;;;;;;;4971953;28;47232;-78
2022/01/21 11:43:15;;;;;;;;;21.25;19.25;;;;;;;;4972049;28;46278;-82
2022/01/21 11:46:06;;;;;;;;;17.25;14.00;;;;;;;;4990187;28;45421;-83
2022/01/21 11:48:51;;;;;;;;;21.25;19.75;;;;;;;;4989907;28;45704;-82
2022/01/21 11:51:21;;;;;;;;;20.25;19.75;;;;;;;;4989629;28;45683;-79
2022/01/21 11:53:51;;;;;;;;;21.50;20.50;;;;;;;;4988698;28;45602;-80
2022/01/21 11:56:32;;;;;;;;;24.75;22.50;;;;;;;;4989877;28;45715;-79
2022/01/21 11:59:02;;;;;;;;;23.50;22.25;;;;;;;;4989512;28;45403;-79
2022/01/21 12:01:38;;;;;;;;;24.50;20.25;;;;;;;;4989387;28;45535;-81
2022/01/21 12:04:04;;;;;;;;;23.50;19.50;;;;;;;;4971678;28;45883;-83
2022/01/21 12:06:30;;;;;;;;;22.33;21.33;;;;;;;;4989688;28;45420;-78
2022/01/21 12:08:56;;;;;;;;;24.00;20.50;;;;;;;;4988586;28;45725;-79
2022/01/21 12:11:29;;;;;;;;;24.00;24.00;;;;;;;;4989194;28;46332;-79
2022/01/21 12:13:54;;;;;;;;;24.00;20.75;;;;;;;;4989274;28;45420;-83
2022/01/21 12:16:46;;;;;;;;;24.67;23.67;;;;;;;;4989430;28;45550;-84
2022/01/21 12:19:20;;;;;;;;;24.50;21.00;;;;;;;;4989350;28;45546;-79
2022/01/21 12:21:48;;;;;;;;;27.50;23.50;;;;;;;;4989006;28;45441;-79
2022/01/21 12:24:16;;;;;;;;;25.75;22.25;;;;;;;;4970868;28;45439;-81
2022/01/21 12:26:55;;;;;;;;;23.25;22.00;;;;;;;;4989744;28;45560;-82
2022/01/21 12:29:22;;;;;;;;;22.75;20.25;;;;;;;;4971509;28;45551;-82
2022/01/21 12:32:05;;;;;;;;;21.50;19.75;;;;;;;;4988580;28;45484;-78
2022/01/21 12:34:51;;;;;;;;;24.75;22.50;;;;;;;;4989718;28;45717;-83
2022/01/21 12:37:23;;;;;;;;;22.75;20.50;;;;;;;;4978088;28;45630;-78
2022/01/21 12:39:48;;;;;;;;;22.00;18.25;;;;;;;;4988667;28;45528;-81
2022/01/21 12:42:19;;;;;;;;;23.33;22.33;;;;;;;;4989048;28;45508;-79
2022/01/21 12:44:45;;;;;;;;;22.75;18.50;;;;;;;;4989219;28;45448;-79
2022/01/21 12:47:29;;;;;;;;;22.25;19.50;;;;;;;;4988648;28;45555;-79
2022/01/21 12:50:04;;;;;;;;;21.25;19.50;;;;;;;;4988853;28;45489;-79
2022/01/21 12:52:44;;;;;;;;;20.25;19.00;;;;;;;;4988294;28;45564;-78
2022/01/21 12:57:55;;;;;;;;;20.00;19.75;;;;;;;;4989093;28;45295;-78
2022/01/21 13:00:20;;;;;;;;;22.00;20.00;;;;;;;;4988564;28;45573;-78
2022/01/21 13:02:49;;;;;;;;;25.67;22.00;;;;;;;;4988922;28;45449;-78
2022/01/21 13:05:22;;;;;;;;;19.25;19.00;;;;;;;;4971130;28;45823;-78
2022/01/21 13:07:51;;;;;;;;;22.25;20.00;;;;;;;;4991254;28;45574;-79
2022/01/21 13:10:16;;;;;;;;;21.50;19.75;;;;;;;;4974140;28;45419;-78
2022/01/21 13:13:00;;;;;;;;;23.67;22.67;;;;;;;;4974249;28;47290;-78
2022/01/21 13:15:38;;;;;;;;;17.75;17.75;;;;;;;;4973964;28;45995;-78
2022/01/21 13:18:03;;;;;;;;;19.25;18.75;;;;;;;;4992186;28;45530;-80
2022/01/21 13:20:30;;;;;;;;;22.75;20.25;;;;;;;;4974373;28;45441;-81
2022/01/21 13:22:55;;;;;;;;;20.00;18.50;;;;;;;;4990512;28;47100;-78
2022/01/21 13:25:22;;;;;;;;;20.00;19.00;;;;;;;;4974228;28;45727;-79
2022/01/21 13:27:48;;;;;;;;;20.75;18.00;;;;;;;;4974082;28;45498;-79
2022/01/21 13:30:15;;;;;;;;;14.75;13.50;;;;;;;;4991454;28;45669;-80
2022/01/21 13:32:41;;;;;;;;;16.00;13.00;;;;;;;;4991998;28;45623;-83
2022/01/21 13:35:11;;;;;;;;;18.00;14.50;;;;;;;;4973594;28;45476;-83
2022/01/21 13:37:37;;;;;;;;;14.50;14.50;;;;;;;;4991293;28;45545;-84
2022/01/21 13:40:04;;;;;;;;;16.25;14.75;;;;;;;;4973669;28;45451;-79
2022/01/21 13:42:31;;;;;;;;;14.00;13.00;;;;;;;;4974178;28;48337;-79
2022/01/21 13:44:57;;;;;;;;;14.25;13.50;;;;;;;;4991124;28;45928;-79
2022/01/21 13:47:24;;;;;;;;;10.25;10.25;;;;;;;;4991342;28;45355;-79
2022/01/21 13:49:49;;;;;;;;;11.50;10.75;;;;;;;;4991549;28;45792;-79
2022/01/21 13:52:14;;;;;;;;;15.33;14.67;;;;;;;;4990348;28;46576;-80
2022/01/21 13:54:43;;;;;;;;;16.00;16.00;;;;;;;;4991683;28;45513;-79
2022/01/21 13:57:09;;;;;;;;;15.00;14.50;;;;;;;;4991288;28;45925;-78
2022/01/21 13:59:40;;;;;;;;;15.50;14.50;;;;;;;;4991323;28;45427;-79
2022/01/21 14:02:07;;;;;;;;;12.25;11.75;;;;;;;;4991217;28;46320;-79
2022/01/21 14:04:33;;;;;;;;;15.00;14.00;;;;;;;;4991746;28;45404;-80
2022/01/21 14:06:58;;;;;;;;;15.33;12.00;;;;;;;;4972494;28;45336;-79
2022/01/21 14:09:23;;;;;;;;;16.50;15.00;;;;;;;;4973442;28;45978;-79
2022/01/21 14:11:48;;;;;;;;;16.33;14.00;;;;;;;;4990842;28;46389;-80
2022/01/21 14:14:16;;;;;;;;;16.00;15.00;;;;;;;;4972820;28;45528;-81
2022/01/21 14:16:47;;;;;;;;;57.75;45.00;;;;;;;;4991007;28;45326;-79
2022/01/21 14:19:14;;;;;;;;;13.75;13.25;;;;;;;;4973136;28;45495;-79
2022/01/21 14:21:40;;;;;;;;;15.25;15.25;;;;;;;;4990503;28;46564;-80
2022/01/21 14:24:16;;;;;;;;;14.00;14.00;;;;;;;;4991805;28;45801;-81
2022/01/21 14:26:41;;;;;;;;;15.00;14.50;;;;;;;;5009990;28;45199;-80
2022/01/21 14:29:07;;;;;;;;;15.33;14.00;;;;;;;;5007588;28;45252;-80
2022/01/21 14:31:40;;;;;;;;;10.00;10.00;;;;;;;;5009484;28;45526;-81
2022/01/21 14:34:20;;;;;;;;;11.75;11.75;;;;;;;;5009282;28;45733;-81
2022/01/21 14:37:08;;;;;;;;;11.25;10.00;;;;;;;;4987158;28;45173;-82
2022/01/21 14:39:44;;;;;;;;;12.00;12.00;;;;;;;;5008876;28;45070;-82
2022/01/21 14:42:10;;;;;;;;;19.00;15.00;;;;;;;;5009268;28;45437;-79
2022/01/21 14:44:40;;;;;;;;;13.50;13.00;;;;;;;;5009319;28;45083;-79
2022/01/21 14:47:06;;;;;;;;;13.25;11.75;;;;;;;;5009357;28;45223;-78
2022/01/21 14:49:31;;;;;;;;;13.50;12.75;;;;;;;;4991880;28;45323;-81
2022/01/21 14:54:48;;;;;;;;;13.00;11.00;;;;;;;;4973794;28;45512;-78
2022/01/21 14:57:14;;;;;;;;;12.75;11.75;;;;;;;;4990747;28;45597;-79
2022/01/21 14:59:53;;;;;;;;;14.25;14.00;;;;;;;;5001478;28;45172;-80
2022/01/21 15:02:27;;;;;;;;;16.25;14.50;;;;;;;;5002980;28;45801;-79
2022/01/21 15:04:53;;;;;;;;;13.75;13.25;;;;;;;;4998766;28;45866;-82
2022/01/21 15:07:23;;;;;;;;;13.75;13.75;;;;;;;;4979081;28;45831;-80
2022/01/21 15:09:50;;;;;;;;;13.75;13.00;;;;;;;;5000294;28;45117;-79
2022/01/21 15:15:25;;;;;;;;;18.75;15.25;;;;;;;;4999326;28;45196;-81
2022/01/21 15:17:53;;;;;;;;;18.25;16.25;;;;;;;;4996940;28;45792;-79
2022/01/21 15:20:22;;;;;;;;;14.25;14.25;;;;;;;;4989498;28;45408;-78
2022/01/21 15:22:48;;;;;;;;;18.25;16.00;;;;;;;;4989603;28;45639;-80
2022/01/21 15:25:13;;;;;;;;;18.00;15.67;;;;;;;;4990100;28;45499;-78
2022/01/21 15:27:38;;;;;;;;;18.00;18.00;;;;;;;;4972600;28;45925;-79